Time;durP1;ratioP1;P1;durP2;ratioP2;P2;SDS_P1;SDS_P2;PMS_P1;PMS_P2;Temp;Humidity;BMP_temperature;BMP_pressure;BME280_temperature;BME280_humidity;BME280_pressure;Samples;Min_cycle;Max_cycle;Signal;HPM_P1;HPM_P2
2021/06/14 00:00:10;;;;;;;3.90;2.03;;;15.70;59.10;;;14.61;57.09;96756.53;4985729;28;20109;-68
2021/06/14 00:02:37;;;;;;;4.93;2.40;;;15.60;59.30;;;14.58;57.00;96761.41;4985990;28;20122;-68
2021/06/14 00:05:04;;;;;;;5.40;2.65;;;15.60;59.50;;;14.50;57.04;96754.47;4973912;28;20514;-67
2021/06/14 00:07:30;;;;;;;5.50;2.45;;;15.50;59.50;;;14.46;56.57;96761.16;4972628;28;20382;-68
2021/06/14 00:09:55;;;;;;;6.18;2.42;;;15.50;59.50;;;14.38;57.61;96756.00;4977255;28;20070;-67
2021/06/14 00:12:21;;;;;;;4.72;2.67;;;15.40;59.70;;;14.38;57.23;96761.28;4982125;28;20142;-68
2021/06/14 00:14:49;;;;;;;5.70;2.40;;;15.40;60.10;;;14.36;57.92;96753.56;4970138;28;20050;-67
2021/06/14 00:17:15;;;;;;;4.60;2.10;;;15.40;60.40;;;14.32;57.03;96746.22;4977248;28;20031;-67
2021/06/14 00:19:40;;;;;;;5.00;2.28;;;15.40;60.10;;;14.32;57.23;96740.91;4995842;28;20106;-67
2021/06/14 00:22:06;;;;;;;4.30;2.30;;;15.40;60.20;;;14.26;58.04;96741.72;4969793;28;20033;-67
2021/06/14 00:24:32;;;;;;;3.60;2.38;;;15.30;60.40;;;14.22;58.34;96745.72;4946788;28;20038;-68
2021/06/14 00:26:58;;;;;;;5.38;2.17;;;15.20;60.50;;;14.18;58.21;96742.66;4984041;28;20066;-67
2021/06/14 00:29:23;;;;;;;3.75;2.10;;;15.30;60.50;;;14.14;58.03;96741.44;4969714;28;20113;-68
2021/06/14 00:31:49;;;;;;;5.72;2.42;;;15.20;60.40;;;14.05;58.13;96740.78;4983578;28;20035;-68
2021/06/14 00:34:15;;;;;;;7.72;2.05;;;15.10;60.40;;;14.00;58.16;96745.81;4976024;28;20121;-67
2021/06/14 00:36:41;;;;;;;3.78;2.20;;;15.10;60.80;;;13.94;58.66;96733.38;4990373;28;20109;-68
2021/06/14 00:39:07;;;;;;;5.25;2.40;;;15.00;61.00;;;13.91;58.11;96741.69;4961290;28;20034;-67
2021/06/14 00:41:33;;;;;;;5.00;2.63;;;15.00;60.90;;;13.88;58.21;96742.09;4985660;28;20371;-68
2021/06/14 00:43:59;;;;;;;4.38;2.38;;;14.90;61.20;;;13.82;57.95;96744.69;4969310;28;20039;-67
2021/06/14 00:46:24;;;;;;;4.05;2.33;;;14.90;61.30;;;13.80;58.40;96739.59;4971726;28;20055;-67
2021/06/14 00:48:50;;;;;;;4.03;2.17;;;14.90;61.60;;;13.77;58.35;96738.13;4952940;28;20031;-68
2021/06/14 00:51:16;;;;;;;7.05;2.97;;;14.80;61.90;;;13.75;58.73;96749.94;4969960;28;20439;-68
2021/06/14 00:53:43;;;;;;;5.13;2.53;;;14.80;61.90;;;13.69;59.13;96746.22;4969263;28;20439;-68
2021/06/14 00:56:13;;;;;;;5.50;2.58;;;14.80;62.10;;;13.67;60.17;96739.50;4949724;28;20506;-67
2021/06/14 00:58:40;;;;;;;3.83;2.40;;;14.80;62.20;;;13.64;59.07;96738.06;4965625;28;20042;-68
2021/06/14 01:01:06;;;;;;;7.80;2.92;;;14.70;62.40;;;13.56;60.05;96740.81;4968437;28;20042;-68
2021/06/14 01:03:32;;;;;;;5.20;3.00;;;14.60;62.70;;;13.59;59.38;96744.94;4956619;28;20614;-67
2021/06/14 01:06:01;;;;;;;6.90;2.58;;;14.70;62.90;;;13.56;60.77;96735.53;4982573;28;20511;-67
2021/06/14 01:08:26;;;;;;;5.25;2.88;;;14.70;63.10;;;13.52;59.46;96736.13;4956601;28;20396;-67
2021/06/14 01:10:52;;;;;;;4.32;2.90;;;14.60;63.30;;;13.53;60.28;96741.22;4987514;28;20127;-67
2021/06/14 01:13:38;;;;;;;4.30;2.60;;;14.60;63.50;;;13.52;62.30;96734.28;4974786;28;20552;-67
2021/06/14 01:16:49;;;;;;;6.15;2.53;;;14.70;63.60;;;13.55;62.29;96735.75;4969455;28;20533;-68
2021/06/14 01:19:38;;;;;;;5.93;2.70;;;14.60;63.70;;;13.53;61.91;96727.19;4985540;28;20034;-67
2021/06/14 01:22:14;;;;;;;7.15;2.85;;;14.60;63.60;;;13.52;61.76;96733.47;4978321;28;20047;-67
2021/06/14 01:25:12;;;;;;;6.05;3.05;;;14.60;63.70;;;13.48;61.74;96731.22;4990848;28;20050;-67
2021/06/14 01:27:50;;;;;;;6.65;2.92;;;14.70;63.60;;;13.47;61.92;96731.41;4958579;28;20108;-67
2021/06/14 01:30:21;;;;;;;4.68;2.67;;;14.60;64.00;;;13.44;62.29;96731.81;4956675;28;20039;-68
2021/06/14 01:32:48;;;;;;;9.73;2.97;;;14.60;64.00;;;13.39;61.34;96735.03;4971573;28;20041;-67
2021/06/14 01:35:16;;;;;;;5.45;2.88;;;14.60;64.20;;;13.37;61.08;96729.13;4970289;28;20048;-68
2021/06/14 01:37:51;;;;;;;5.35;2.78;;;14.60;64.10;;;13.39;62.69;96729.75;4971026;28;20030;-68
2021/06/14 01:40:18;;;;;;;6.57;2.75;;;14.60;64.20;;;13.37;61.40;96729.13;4991294;28;20035;-67
2021/06/14 01:42:48;;;;;;;4.60;2.80;;;14.60;64.50;;;13.34;62.71;96729.47;4990925;28;20108;-68
2021/06/14 01:45:14;;;;;;;5.20;2.80;;;14.50;64.30;;;13.32;61.24;96723.56;4998043;23;20046;-72
2021/06/14 01:47:41;;;;;;;5.40;2.97;;;14.50;64.40;;;13.28;61.59;96722.31;4976444;28;20805;-72
2021/06/14 01:50:07;;;;;;;6.10;3.22;;;14.40;64.40;;;13.22;61.73;96717.81;4974824;28;20518;-71
2021/06/14 01:52:33;;;;;;;5.45;3.05;;;14.40;64.40;;;13.17;61.13;96712.25;4980049;28;20449;-72
2021/06/14 01:54:59;;;;;;;5.13;2.95;;;14.30;64.10;;;13.11;61.69;96699.78;4974579;28;20031;-72
2021/06/14 01:57:24;;;;;;;4.55;2.42;;;14.20;64.20;;;13.04;61.68;96706.84;5005274;28;20041;-72
2021/06/14 01:59:50;;;;;;;4.57;2.90;;;14.20;64.30;;;12.91;62.18;96704.09;4993771;28;20036;-71
2021/06/14 02:02:16;;;;;;;5.32;3.03;;;14.10;64.70;;;12.82;62.37;96698.09;4993260;28;20041;-71
2021/06/14 02:04:44;;;;;;;6.32;2.78;;;14.10;65.00;;;12.76;62.21;96697.03;4992637;28;20456;-71
2021/06/14 02:07:10;;;;;;;5.63;3.10;;;13.80;64.80;;;12.72;62.25;96695.78;4979061;28;20590;-72
2021/06/14 02:09:36;;;;;;;6.07;3.20;;;13.80;65.20;;;12.68;62.89;96697.16;4975287;28;20038;-72
2021/06/14 02:12:03;;;;;;;5.72;2.80;;;13.80;65.30;;;12.63;62.88;96691.59;5017604;28;20041;-72
2021/06/14 02:14:32;;;;;;;5.07;2.95;;;13.80;65.50;;;12.58;62.43;96683.44;4973846;28;20110;-71
2021/06/14 02:17:07;;;;;;;5.80;2.67;;;13.70;65.80;;;12.53;63.73;96678.72;4994251;28;20030;-72
2021/06/14 02:19:32;;;;;;;3.70;2.70;;;13.70;66.00;;;12.49;63.20;96679.28;5028788;28;20121;-71
2021/06/14 02:21:58;;;;;;;6.53;3.15;;;13.60;66.10;;;12.43;62.86;96677.38;5012691;28;20033;-71
2021/06/14 02:24:24;;;;;;;8.88;3.15;;;13.60;66.20;;;12.37;63.28;96675.47;5024982;28;20120;-71
2021/06/14 02:26:50;;;;;;;6.25;3.03;;;13.50;66.30;;;12.33;63.14;96679.50;4990546;28;20429;-71
2021/06/14 02:29:16;;;;;;;5.60;2.85;;;13.60;66.30;;;12.34;63.12;96676.66;5026765;28;20033;-71
2021/06/14 02:31:42;;;;;;;6.80;3.22;;;13.60;66.20;;;12.32;63.01;96678.69;5013065;28;20045;-71
2021/06/14 02:34:08;;;;;;;4.97;3.10;;;13.60;66.40;;;12.26;63.68;96674.97;4992584;28;20556;-70
2021/06/14 02:36:35;;;;;;;5.78;2.58;;;13.50;66.50;;;12.22;63.40;96676.34;5000429;28;20037;-70
2021/06/14 02:39:10;;;;;;;5.97;2.90;;;13.40;66.70;;;12.21;64.64;96673.88;4993087;28;20387;-71
2021/06/14 02:41:36;;;;;;;6.38;3.17;;;13.40;66.80;;;12.20;64.22;96674.88;4988664;28;20034;-71
2021/06/14 02:44:04;;;;;;;6.57;2.85;;;13.50;67.00;;;12.18;64.22;96667.16;5012118;28;20048;-70
2021/06/14 02:46:32;;;;;;;4.25;2.75;;;13.40;67.10;;;12.15;64.43;96666.69;4961185;28;20058;-70
2021/06/14 02:48:58;;;;;;;5.65;3.20;;;13.40;67.30;;;12.17;64.66;96664.69;4992574;28;20618;-70
2021/06/14 02:51:23;;;;;;;5.72;2.80;;;13.40;67.20;;;12.16;64.38;96658.59;4991006;28;20029;-71
2021/06/14 02:54:03;;;;;;;9.27;3.30;;;13.40;67.30;;;12.16;64.65;96658.59;5012119;28;20037;-70
2021/06/14 02:56:30;;;;;;;5.13;3.20;;;13.40;67.30;;;12.15;64.29;96659.59;5001118;28;20080;-70
2021/06/14 02:58:56;;;;;;;7.55;3.05;;;13.40;67.00;;;12.15;63.89;96649.06;4981067;28;20520;-70
2021/06/14 03:01:21;;;;;;;7.72;3.15;;;13.40;67.20;;;12.17;64.73;96654.16;4998307;28;20479;-70
2021/06/14 03:03:49;;;;;;;6.05;3.08;;;13.40;67.20;;;12.18;65.10;96655.78;4990898;28;20050;-70
2021/06/14 03:06:16;;;;;;;8.90;3.47;;;13.50;67.30;;;12.20;65.17;96659.03;4998037;28;20037;-71
2021/06/14 03:08:42;;;;;;;6.50;3.10;;;13.50;67.40;;;12.21;65.10;96658.84;5025154;28;20044;-71
2021/06/14 03:11:07;;;;;;;6.72;2.88;;;13.50;67.20;;;12.22;64.94;96657.88;5003007;28;20030;-70
2021/06/14 03:13:33;;;;;;;7.28;3.42;;;13.50;67.30;;;12.24;64.40;96663.78;4994990;28;20027;-70
2021/06/14 03:15:59;;;;;;;5.85;3.40;;;13.50;67.20;;;12.27;64.46;96666.06;4990927;28;20035;-70
2021/06/14 03:18:25;;;;;;;6.13;3.10;;;13.50;67.00;;;12.27;64.65;96665.25;4997133;28;20508;-70
2021/06/14 03:20:55;;;;;;;7.55;3.00;;;13.60;67.10;;;12.24;65.55;96661.16;5019612;28;20083;-70
2021/06/14 03:23:20;;;;;;;5.13;2.70;;;13.60;67.20;;;12.26;65.13;96664.41;4989148;28;20054;-71
2021/06/14 03:25:46;;;;;;;9.55;3.10;;;13.60;67.10;;;12.26;64.45;96664.41;5012124;28;20088;-70
2021/06/14 03:28:14;;;;;;;4.40;2.97;;;13.60;67.00;;;12.24;64.48;96663.78;5001113;28;21472;-69
2021/06/14 03:30:40;;;;;;;8.45;3.42;;;13.50;67.10;;;12.26;65.15;96664.41;4992062;28;20038;-70
2021/06/14 03:33:06;;;;;;;6.07;3.05;;;13.60;67.30;;;12.25;65.41;96667.25;4988516;28;20545;-69
2021/06/14 03:35:32;;;;;;;5.15;3.00;;;13.60;67.00;;;12.26;65.42;96668.88;4990835;28;20057;-66
2021/06/14 03:37:57;;;;;;;5.28;3.15;;;13.60;67.50;;;12.25;65.46;96668.06;5008492;28;20497;-67
2021/06/14 03:40:23;;;;;;;7.30;3.28;;;13.60;67.10;;;12.23;64.85;96670.06;4979025;28;20041;-66
2021/06/14 03:42:49;;;;;;;6.25;3.45;;;13.50;67.00;;;12.22;64.51;96668.44;5010441;28;20069;-69
2021/06/14 03:45:15;;;;;;;6.57;3.40;;;13.50;67.20;;;12.22;65.50;96673.72;4956226;28;20046;-68
2021/06/14 03:47:41;;;;;;;5.85;3.10;;;13.50;67.20;;;12.23;65.07;96663.97;4987963;28;20501;-65
2021/06/14 03:50:08;;;;;;;4.47;3.28;;;13.60;67.20;;;12.23;65.14;96663.97;4991997;28;20062;-65
2021/06/14 03:52:36;;;;;;;6.63;3.58;;;13.60;67.10;;;12.22;65.37;96657.88;5006017;28;20513;-69
2021/06/14 03:55:03;;;;;;;10.82;3.40;;;13.60;67.20;;;12.24;65.05;96658.50;5002603;28;20042;-71
2021/06/14 03:57:28;;;;;;;8.95;3.38;;;13.60;67.40;;;12.28;65.04;96664.22;4988032;28;20030;-71
2021/06/14 03:59:54;;;;;;;5.78;3.03;;;13.60;67.50;;;12.31;66.13;96670.94;4977128;28;20100;-71
2021/06/14 04:02:21;;;;;;;6.40;3.50;;;13.70;67.50;;;12.35;66.25;96664.28;5008637;28;20045;-71
2021/06/14 04:04:53;;;;;;;7.80;3.67;;;13.80;67.50;;;12.39;65.46;96668.19;4989082;28;20038;-73
2021/06/14 04:07:19;;;;;;;12.02;7.30;;;13.80;67.40;;;12.41;66.33;96664.38;4989001;28;20039;-71
2021/06/14 04:09:45;;;;;;;7.35;3.90;;;13.90;67.80;;;12.46;65.49;96661.19;4988557;28;20076;-71
2021/06/14 04:12:11;;;;;;;6.95;3.38;;;13.90;67.60;;;12.48;65.46;96670.56;4988919;28;20031;-71
2021/06/14 04:14:38;;;;;;;7.45;3.67;;;13.90;67.50;;;12.52;65.42;96678.91;4986236;28;20084;-71
2021/06/14 04:17:05;;;;;;;7.30;3.08;;;14.00;67.40;;;12.54;66.31;96671.63;5037949;28;20037;-71
2021/06/14 04:19:31;;;;;;;5.68;3.42;;;14.00;67.20;;;12.55;66.13;96674.06;5006855;28;20031;-71
2021/06/14 04:21:57;;;;;;;5.47;2.95;;;14.10;67.40;;;12.61;66.36;96671.69;4988963;28;20038;-70
2021/06/14 04:24:23;;;;;;;9.98;4.25;;;14.10;67.30;;;12.67;66.22;96665.63;5009751;28;20034;-70
2021/06/14 04:26:49;;;;;;;5.18;3.45;;;14.10;67.30;;;12.71;65.68;96673.03;4994527;28;20533;-70
2021/06/14 04:29:15;;;;;;;7.68;3.38;;;14.20;66.80;;;12.73;65.89;96673.66;5007582;28;20038;-71
2021/06/14 04:31:41;;;;;;;6.88;4.30;;;14.20;66.50;;;12.76;66.09;96681.19;4997340;28;20038;-70
2021/06/14 04:34:06;;;;;;;13.48;8.63;;;14.30;66.90;;;12.79;65.87;96678.16;4992514;28;20099;-70
2021/06/14 04:36:32;;;;;;;11.05;7.82;;;14.30;67.60;;;12.84;65.88;96685.50;5009722;28;20088;-71
2021/06/14 04:38:58;;;;;;;9.27;5.60;;;14.40;67.50;;;12.88;66.42;96684.13;4999160;28;20038;-70
2021/06/14 04:41:23;;;;;;;12.95;4.70;;;14.40;67.40;;;12.89;65.99;96676.00;4981575;28;20482;-70
2021/06/14 04:43:49;;;;;;;13.25;8.38;;;14.40;67.20;;;12.93;66.02;96676.47;4991841;28;20105;-70
2021/06/14 04:46:15;;;;;;;13.30;7.60;;;14.50;67.10;;;12.99;65.62;96677.53;4994490;28;20084;-68
2021/06/14 04:48:41;;;;;;;22.73;16.88;;;14.60;67.10;;;13.03;65.73;96686.72;5002729;28;20113;-67
2021/06/14 04:51:06;;;;;;;15.07;10.60;;;14.60;66.70;;;13.05;65.55;96672.31;5014230;28;20037;-69
2021/06/14 04:53:32;;;;;;;17.00;9.30;;;14.60;65.90;;;13.12;65.46;96677.63;5001596;28;20160;-68
2021/06/14 04:55:58;;;;;;;15.40;10.55;;;14.60;65.70;;;13.13;65.62;96666.09;5009924;28;20034;-69
2021/06/14 04:58:24;;;;;;;12.35;5.07;;;14.60;66.30;;;13.17;65.66;96664.69;5009716;28;20044;-68
2021/06/14 05:00:49;;;;;;;7.05;4.28;;;14.70;66.00;;;13.21;65.38;96671.25;5007343;28;20113;-71
2021/06/14 05:03:15;;;;;;;8.55;4.30;;;14.80;65.70;;;13.27;65.31;96661.75;4999038;28;20045;-65
2021/06/14 05:05:41;;;;;;;11.27;4.88;;;14.80;65.40;;;13.27;65.18;96672.31;5010804;28;20037;-65
2021/06/14 05:08:07;;;;;;;13.82;5.28;;;14.80;65.50;;;13.27;65.65;96662.56;5012021;28;20044;-67
2021/06/14 05:10:33;;;;;;;10.18;5.20;;;14.80;66.20;;;13.32;64.81;96668.06;5028911;28;20037;-65
2021/06/14 05:12:58;;;;;;;11.43;7.78;;;14.90;65.10;;;13.36;65.48;96661.44;5007135;28;20038;-66
2021/06/14 05:15:25;;;;;;;14.52;8.90;;;15.00;65.30;;;13.42;65.38;96671.22;5010509;28;20030;-67
2021/06/14 05:17:51;;;;;;;8.60;5.30;;;15.00;65.30;;;13.50;65.00;96672.88;5017395;28;20544;-66
2021/06/14 05:20:17;;;;;;;9.50;4.90;;;15.10;65.00;;;13.58;64.93;96674.56;5013883;28;20038;-68
2021/06/14 05:22:44;;;;;;;8.90;4.70;;;15.20;64.60;;;13.64;64.53;96673.81;5013921;28;20034;-68
2021/06/14 05:25:11;;;;;;;9.57;4.75;;;15.30;64.10;;;13.70;64.80;96673.03;5004523;28;20040;-71
2021/06/14 05:27:37;;;;;;;9.27;5.90;;;15.40;64.10;;;13.81;64.19;96675.13;4997851;28;20116;-71
2021/06/14 05:30:03;;;;;;;24.70;16.33;;;15.50;64.40;;;13.91;64.62;96670.28;5010422;28;20113;-70
2021/06/14 05:32:29;;;;;;;17.50;10.60;;;15.60;64.00;;;13.99;64.79;96675.41;5016928;28;20034;-69
2021/06/14 05:34:54;;;;;;;10.13;7.03;;;15.70;63.50;;;14.13;63.99;96678.13;5015028;28;20069;-68
2021/06/14 05:37:20;;;;;;;12.57;5.07;;;15.90;63.40;;;14.24;64.49;96680.19;5013707;28;20113;-66
2021/06/14 05:39:46;;;;;;;10.30;5.40;;;16.10;62.50;;;14.35;63.25;96682.28;5030126;28;20026;-68
2021/06/14 05:42:12;;;;;;;12.65;7.53;;;16.30;61.20;;;14.48;64.15;96681.53;5012540;28;20561;-69
2021/06/14 05:44:38;;;;;;;18.08;9.98;;;16.60;60.70;;;14.63;63.48;96677.72;4997309;28;20419;-70
2021/06/14 05:47:04;;;;;;;11.00;5.90;;;16.80;60.50;;;14.80;63.78;96680.81;4994820;28;20037;-66
2021/06/14 05:49:30;;;;;;;17.63;8.48;;;17.10;59.00;;;14.95;63.76;96678.00;5011183;28;20022;-65
2021/06/14 05:51:55;;;;;;;9.43;5.40;;;17.20;59.20;;;15.12;61.91;96676.56;4991127;28;20045;-65
2021/06/14 05:54:21;;;;;;;10.00;4.70;;;17.50;58.00;;;15.27;61.84;96682.50;5012826;28;20084;-66
2021/06/14 05:56:47;;;;;;;12.38;5.20;;;17.70;56.70;;;15.41;61.71;96687.81;5029790;28;20037;-69
2021/06/14 05:59:13;;;;;;;10.23;4.63;;;17.80;56.60;;;15.57;61.63;96684.72;4991576;28;20115;-65
2021/06/14 06:01:38;;;;;;;6.80;4.43;;;18.00;56.10;;;15.69;60.72;96680.47;5004651;28;20502;-66
2021/06/14 06:04:04;;;;;;;7.07;4.55;;;18.10;55.50;;;15.84;60.49;96678.41;5027362;28;20456;-67
2021/06/14 06:06:30;;;;;;;15.43;7.22;;;18.30;54.80;;;16.00;60.78;96673.66;5010679;28;20482;-66
2021/06/14 06:08:55;;;;;;;10.43;6.25;;;18.40;54.50;;;16.16;59.39;96673.19;4991668;28;20093;-69
2021/06/14 06:11:21;;;;;;;18.50;10.27;;;18.60;54.20;;;16.30;59.55;96666.81;5004267;28;20155;-65
2021/06/14 06:13:48;;;;;;;12.98;4.65;;;18.80;53.60;;;16.43;59.84;96666.75;5021599;28;20041;-66
2021/06/14 06:16:13;;;;;;;9.82;4.75;;;18.80;52.50;;;16.58;59.57;96668.31;5011193;28;20446;-68
2021/06/14 06:18:39;;;;;;;10.07;4.15;;;19.10;53.00;;;16.66;59.11;96666.25;5004735;28;20037;-69
2021/06/14 06:21:05;;;;;;;10.07;4.00;;;19.10;52.30;;;16.83;58.21;96663.91;5012720;28;20030;-68
2021/06/14 06:23:31;;;;;;;20.25;5.03;;;19.30;51.60;;;16.97;57.86;96660.13;4994546;28;20030;-68
2021/06/14 06:25:56;;;;;;;9.52;4.38;;;19.50;51.40;;;17.14;58.12;96668.38;5009862;28;20706;-69
2021/06/14 06:28:22;;;;;;;8.80;4.50;;;19.70;51.40;;;17.33;57.17;96664.75;4980660;28;20045;-68
2021/06/14 06:30:48;;;;;;;12.43;7.10;;;20.00;51.50;;;17.46;57.24;96663.84;5013997;28;20046;-70
2021/06/14 06:33:14;;;;;;;20.45;11.48;;;20.20;49.70;;;17.61;57.17;96656.31;4994615;28;20223;-69
2021/06/14 06:35:39;;;;;;;7.63;4.55;;;20.60;49.70;;;17.77;56.65;96656.81;5019725;28;20031;-68
2021/06/14 06:38:05;;;;;;;7.93;3.88;;;20.70;48.70;;;17.93;56.22;96650.94;4995039;28;20033;-67
2021/06/14 06:40:31;;;;;;;8.38;3.88;;;20.80;47.10;;;18.06;55.66;96656.09;5008896;28;20255;-66
2021/06/14 06:42:57;;;;;;;9.70;4.18;;;21.00;47.10;;;18.22;55.52;96649.34;4993241;28;20034;-66
2021/06/14 06:45:24;;;;;;;8.88;4.00;;;21.10;47.60;;;18.38;55.22;96648.75;5009318;28;20057;-65
2021/06/14 06:47:50;;;;;;;8.40;3.92;;;21.30;47.30;;;18.54;54.58;96647.28;4998149;28;20097;-65
2021/06/14 06:50:16;;;;;;;7.95;4.07;;;21.50;45.80;;;18.73;55.05;96648.91;5008376;28;20046;-68
2021/06/14 06:52:42;;;;;;;15.95;9.25;;;21.70;45.80;;;18.96;54.16;96651.66;4976507;28;20073;-70
2021/06/14 06:55:09;;;;;;;11.40;6.72;;;22.10;46.00;;;19.21;53.68;96648.78;5006819;28;20061;-68
2021/06/14 06:57:35;;;;;;;9.13;3.63;;;22.30;45.30;;;19.43;53.54;96656.25;5012726;28;20071;-68
2021/06/14 07:00:02;;;;;;;7.57;3.67;;;22.60;44.20;;;19.62;53.16;96644.44;4994681;28;20039;-68
2021/06/14 07:02:28;;;;;;;7.45;3.17;;;22.80;43.30;;;19.80;52.72;96646.19;5005708;28;20037;-68
2021/06/14 07:04:55;;;;;;;8.77;4.47;;;23.00;42.90;;;19.97;50.72;96648.97;5003712;28;20033;-66
2021/06/14 07:07:20;;;;;;;8.35;4.20;;;23.20;41.90;;;20.06;50.81;96645.69;5028447;28;20489;-67
2021/06/14 07:09:46;;;;;;;9.95;4.95;;;23.30;41.30;;;20.16;50.37;96656.59;4998388;28;20046;-67
2021/06/14 07:12:12;;;;;;;9.15;3.78;;;23.50;41.40;;;20.36;50.04;96650.00;5011440;28;20044;-66
2021/06/14 07:14:38;;;;;;;6.25;3.30;;;23.70;41.40;;;20.51;49.90;96649.53;5010628;28;20034;-68
2021/06/14 07:17:03;;;;;;;5.13;2.83;;;23.80;39.80;;;20.59;50.04;96639.28;5007300;28;20145;-68
2021/06/14 07:19:29;;;;;;;6.88;3.13;;;24.00;39.70;;;20.75;48.66;96638.50;5008306;28;20038;-66
2021/06/14 07:21:55;;;;;;;5.50;3.08;;;24.20;39.70;;;20.85;48.99;96637.09;5009323;28;20030;-68
2021/06/14 07:24:21;;;;;;;9.32;2.95;;;24.30;39.10;;;20.94;48.68;96636.44;4995850;28;20040;-70
2021/06/14 07:26:46;;;;;;;6.15;2.67;;;24.40;39.30;;;21.06;48.93;96636.38;4991801;28;20030;-68
2021/06/14 07:29:12;;;;;;;14.30;6.00;;;24.50;38.50;;;21.21;48.13;96633.94;5004242;28;20161;-65
2021/06/14 07:31:38;;;;;;;10.90;6.90;;;24.70;37.90;;;21.35;47.76;96640.63;4991639;28;20092;-66
2021/06/14 07:34:05;;;;;;;12.93;4.90;;;25.00;37.80;;;21.51;47.39;96635.53;5001045;28;20465;-67
2021/06/14 07:36:31;;;;;;;9.93;3.30;;;25.10;37.30;;;21.63;47.27;96645.06;5006229;28;20485;-68
2021/06/14 07:38:57;;;;;;;5.07;2.90;;;25.40;37.50;;;21.73;46.08;96644.44;4990537;28;20072;-70
2021/06/14 07:41:23;;;;;;;10.65;7.63;;;25.40;36.40;;;21.89;46.64;96638.19;4991736;28;20431;-68
2021/06/14 07:43:49;;;;;;;11.02;6.20;;;25.80;36.60;;;22.06;46.14;96640.88;4967284;28;20307;-68
2021/06/14 07:46:15;;;;;;;8.13;3.45;;;26.00;36.80;;;22.22;45.85;96636.53;4972355;28;20037;-67
2021/06/14 07:48:41;;;;;;;7.60;2.90;;;26.20;36.30;;;22.38;45.98;96629.47;4999351;28;20053;-67
2021/06/14 07:51:09;;;;;;;5.50;2.92;;;26.30;36.40;;;22.58;46.32;96629.69;4992155;28;20092;-68
2021/06/14 07:53:35;;;;;;;6.75;2.90;;;26.60;36.60;;;22.70;45.76;96637.59;5004890;28;20030;-68
2021/06/14 07:56:00;;;;;;;8.95;4.43;;;26.60;35.40;;;22.77;45.23;96625.59;4990284;28;20397;-68
2021/06/14 07:58:26;;;;;;;15.10;5.90;;;26.70;35.00;;;22.96;44.75;96625.28;5005380;28;20030;-67
2021/06/14 08:00:52;;;;;;;7.65;2.83;;;27.00;34.90;;;23.12;43.96;96635.91;5006980;28;20038;-69
2021/06/14 08:03:22;;;;;;;8.60;3.05;;;26.90;34.10;;;23.21;44.56;96636.22;4995273;28;20036;-69
2021/06/14 08:05:48;;;;;;;6.47;2.63;;;27.00;34.00;;;23.27;43.46;96637.88;5026026;28;20033;-71
2021/06/14 08:08:14;;;;;;;9.07;2.90;;;26.90;33.60;;;23.41;43.23;96624.84;5009294;28;20112;-68
2021/06/14 08:10:42;;;;;;;11.63;2.70;;;27.10;34.00;;;23.58;43.48;96628.22;4999653;28;20062;-65
2021/06/14 08:13:08;;;;;;;7.10;4.28;;;27.30;34.40;;;23.71;43.24;96633.13;5011617;28;20425;-68
2021/06/14 08:15:33;;;;;;;7.07;3.85;;;27.40;33.20;;;23.91;42.56;96620.91;4975255;28;20023;-69
2021/06/14 08:18:09;;;;;;;4.50;2.20;;;27.60;33.00;;;24.02;42.62;96619.88;4995573;28;20096;-68
2021/06/14 08:20:42;;;;;;;4.95;2.25;;;27.60;31.70;;;24.09;41.19;96617.75;5011702;28;20038;-67
2021/06/14 08:25:52;;;;;;;5.40;2.30;;;27.80;31.70;;;24.41;41.02;96615.75;4999884;28;20425;-68
2021/06/14 08:28:17;;;;;;;5.63;2.58;;;28.00;31.30;;;24.54;40.77;96611.78;5011681;28;20030;-69
2021/06/14 08:30:43;;;;;;;7.60;2.72;;;28.20;31.10;;;24.70;40.06;96613.44;5004685;28;20045;-68
2021/06/14 08:33:09;;;;;;;7.97;2.60;;;28.20;31.10;;;24.87;39.91;96607.78;4994151;28;20061;-68
2021/06/14 08:35:35;;;;;;;5.45;2.33;;;28.50;31.70;;;25.07;39.51;96606.22;5012902;28;20030;-70
2021/06/14 08:38:01;;;;;;;4.68;1.95;;;28.60;30.80;;;25.27;38.58;96609.72;4975739;28;20517;-69
2021/06/14 08:40:29;;;;;;;6.65;2.22;;;28.60;30.10;;;25.46;37.55;96599.22;5009816;28;20056;-67
2021/06/14 08:43:02;;;;;;;6.38;2.50;;;28.90;30.70;;;25.62;37.78;96598.13;5012412;28;20034;-67
2021/06/14 08:45:27;;;;;;;6.82;2.97;;;28.90;30.00;;;25.73;38.37;96598.94;5008926;28;20042;-66
2021/06/14 08:47:53;;;;;;;6.95;3.13;;;29.10;30.20;;;25.83;37.54;96593.53;4992991;28;20046;-69
2021/06/14 08:50:19;;;;;;;7.03;3.50;;;29.10;30.10;;;25.88;37.23;96590.00;4996352;28;20093;-70
2021/06/14 08:52:45;;;;;;;4.88;2.25;;;29.10;29.40;;;25.98;37.49;96589.16;5009313;28;20025;-71
2021/06/14 08:55:12;;;;;;;7.63;2.97;;;29.20;30.20;;;26.12;36.46;96585.59;5008916;28;20058;-72
2021/06/14 08:57:38;;;;;;;12.85;5.85;;;29.30;29.60;;;26.30;37.11;96591.47;5010080;28;20026;-68
2021/06/14 09:00:10;;;;;;;5.10;2.58;;;29.60;30.40;;;26.47;36.46;96583.84;5012972;28;20159;-68
2021/06/14 09:02:36;;;;;;;7.53;3.17;;;29.80;30.00;;;26.59;36.35;96584.31;5006781;28;20042;-68
2021/06/14 09:05:04;;;;;;;5.40;1.88;;;29.80;29.00;;;26.64;36.26;96592.38;4996376;28;20041;-68
2021/06/14 09:07:30;;;;;;;7.30;2.40;;;29.80;30.00;;;26.75;36.07;96583.16;5014337;28;20084;-70
2021/06/14 09:09:55;;;;;;;6.45;3.88;;;30.00;28.90;;;26.89;36.51;96586.00;4995393;28;20029;-69
2021/06/14 09:12:21;;;;;;;9.02;4.05;;;30.30;29.50;;;27.04;35.99;96585.94;5030820;28;20095;-69
2021/06/14 09:14:47;;;;;;;52.85;23.75;;;30.40;29.10;;;27.11;36.56;96591.00;5014455;28;20042;-70
2021/06/14 09:17:15;;;;;;;28.23;11.80;;;30.40;30.60;;;27.22;35.97;96587.16;5015205;28;20097;-71
2021/06/14 09:19:52;;;;;;;13.15;6.35;;;30.60;30.00;;;27.33;34.24;96585.97;4991097;28;20037;-71
2021/06/14 09:22:21;;;;;;;9.52;4.63;;;30.70;28.80;;;27.52;34.77;96590.66;4994192;28;20038;-71
2021/06/14 09:25:03;;;;;;;10.48;2.78;;;30.90;28.20;;;27.64;33.79;96588.41;5001804;28;20057;-71
2021/06/14 09:27:42;;;;;;;23.05;5.47;;;31.00;28.30;;;27.83;34.45;96583.88;5000211;28;20038;-69
2021/06/14 09:30:15;;;;;;;34.22;16.60;;;31.30;28.70;;;28.02;34.76;96579.31;4994311;28;20504;-74
2021/06/14 09:32:59;;;;;;;28.20;13.57;;;31.50;29.30;;;28.19;33.05;96580.75;5030282;28;20033;-67
2021/06/14 09:35:37;;;;;;;10.77;2.40;;;31.60;27.60;;;28.37;31.48;96580.03;5012548;28;20025;-70
2021/06/14 09:38:10;;;;;;;8.25;3.38;;;31.60;26.00;;;28.46;32.58;96578.25;5027234;28;20054;-71
2021/06/14 09:40:36;;;;;;;9.30;3.45;;;31.80;26.80;;;28.63;33.25;96573.16;5012550;28;20026;-72
2021/06/14 09:43:05;;;;;;;28.42;6.50;;;32.00;27.00;;;28.80;33.54;96577.25;5012636;28;20505;-68
2021/06/14 09:45:31;;;;;;;4.63;2.22;;;32.10;27.60;;;28.86;33.01;96576.09;5007631;28;20030;-69
2021/06/14 09:47:56;;;;;;;29.33;9.05;;;32.10;25.60;;;28.95;32.63;96571.63;5009156;28;20034;-68
2021/06/14 09:50:28;;;;;;;33.92;14.90;;;32.30;27.10;;;29.17;32.56;96565.59;5007368;28;20049;-68
2021/06/14 09:53:12;;;;;;;25.00;10.27;;;32.60;27.70;;;29.30;32.12;96564.84;5013719;28;20044;-70
2021/06/14 09:55:39;;;;;;;24.02;7.80;;;32.60;27.10;;;29.45;32.71;96563.81;5023907;28;20044;-68
2021/06/14 09:58:22;;;;;;;7.55;2.28;;;33.00;26.60;;;29.61;30.45;96567.03;4999462;28;20029;-69
2021/06/14 10:00:58;;;;;;;6.72;2.10;;;33.30;25.00;;;29.74;31.92;96564.34;4995913;28;20552;-71
2021/06/14 10:03:26;;;;;;;8.32;2.25;;;33.50;26.50;;;29.92;32.41;96564.56;4993392;28;20046;-71
2021/06/14 10:05:54;;;;;;;4.95;2.10;;;33.80;24.50;;;30.29;32.73;96568.97;4990592;28;20972;-69
2021/06/14 10:08:25;;;;;;;6.00;2.22;;;34.10;25.90;;;30.77;29.90;96563.84;4991295;28;20056;-71
2021/06/14 10:11:09;;;;;;;5.55;2.25;;;34.50;24.10;;;31.16;28.24;96556.97;4996154;28;20040;-70
2021/06/14 10:13:40;;;;;;;4.13;1.90;;;34.80;23.10;;;31.39;29.02;96553.13;5014801;28;20121;-70
2021/06/14 10:16:10;;;;;;;4.97;2.58;;;34.90;23.00;;;31.77;28.95;96548.09;5007807;28;20574;-68
2021/06/14 10:18:59;;;;;;;5.63;2.20;;;35.30;24.10;;;32.04;27.65;96538.09;5021366;28;20038;-69
2021/06/14 10:21:33;;;;;;;4.50;1.80;;;35.60;22.90;;;32.30;27.60;96533.53;5008832;28;20026;-67